Amherst, CO

1:48 AM MST on February 24, 2017 (GMT -0700)
Holyoke Municipal | | Change Station
Active Advisory: Winter Weather Advisory

Elev 3730 ft 40.57 °N, 102.28 °W | Updated 13 minutes ago

Snow
Snow
25 °F
Feels Like 13 °F
N
13
Wind Variable Wind from North

Today
High -- | Low -- °F
--% Chance of Precip.
Yesterday
High -- | Low -- °F
Precip. -- in
Pressure 29.85 in
Visibility 3.0 miles
Clouds Overcast 700 ft
Windchill 13 °F
Dew Point 21 °F
Humidity 86%
Rainfall 0.00 in
Snow Depth Not available.
6:29 AM 5:34 PM
Waning Crescent, 6% visible
METAR KHEQ 240835Z AUTO 36011KT 3SM -SN OVC007 M04/M06 A2985 RMK AO2
Pressure 29.85 in
Visibility 3.0 miles
Clouds Overcast 700 ft
Windchill 13 °F
Dew Point 21 °F
Humidity 86%
Rainfall 0.00 in
Snow Depth Not available.
6:29 AM 5:34 PM
Waning Crescent, 6% visible
METAR KHEQ 240835Z AUTO 36011KT 3SM -SN OVC007 M04/M06 A2985 RMK AO2

Get Your Daily Forecast Email!

Thanks for signing up!

Be on the lookout for a verification email in your inbox.

You'll start receiving the daily forecast at 8 AM.

×

10-Day Weather Forecast

Almanac

Astronomy

Feb. 24, 2017 Rise Set
Actual Time
Civil Twilight
Nautical Twilight
Astronomical Twilight
Moon
Length of Visible Light
Length of Day
Tomorrow will be .
, % of the Moon is Illuminated

Today's Extremes

State Highs State Lows

Community

WunderPhotos

Upload Photos

1,962,540 photos uploaded!

WunderBlog® & News

Nearby

Air Quality

  Air Quality AQ Index Pollutant
Not available.

Snow Depth

Station Depth Elevation

Earthquake Activity

City Distance Mag. Time & Date
Minimum magnitude displayed is 2.5.

Coastal Water Temperatures

Place Temperature

Stations

Nearby Weather Stations

Station Location Temp. Windchill Dew Point Humidity Wind Precip. Elev Updated Type
                   

Watches & Warnings

Winter Weather Advisory
Issued: 8:37 PM MST Feb. 23, 2017 – National Weather Service

... Winter Weather Advisory remains in effect until 9 am MST
Friday...

* affected areas... Sedgwick and Phillips counties.

* Timing... periods of light snow will continue through Friday
morning.

* Snow accumulations... another 1 to 3 inches, with storm totals
of 2 to 5 inches.

* Wind/visibility... north winds 10 to 20 mph. Visibility down to
1 mile at times in snow.

* Impacts... snow and colder temperatures will create snow
covered roads and hazardous winter driving conditions. Drivers
should exercise caution and allow extra time to reach your
destination safely.

Precautionary/preparedness actions...

A Winter Weather Advisory for snow means that periods of snow
will cause primarily travel difficulties. Be prepared for snow
covered roads and limited visibilities... and use caution while
driving.